Time;durP1;ratioP1;P1;durP2;ratioP2;P2;SDS_P1;SDS_P2;PMS_P1;PMS_P2;Temp;Humidity;BMP_temperature;BMP_pressure;BME280_temperature;BME280_humidity;BME280_pressure;Samples;Min_cycle;Max_cycle;Signal;HPM_P1;HPM_P2
2023/12/10 00:01:21;;;;;;;19.40;8.18;;;;;;;-11.97;67.49;100257.53;5070443;28;20044;-63
2023/12/10 00:03:47;;;;;;;16.00;9.25;;;;;;;-11.86;67.68;100262.16;5053710;28;20044;-62
2023/12/10 00:06:13;;;;;;;19.08;8.40;;;;;;;-11.90;67.42;100253.78;5071419;28;20051;-63
2023/12/10 00:08:38;;;;;;;14.95;8.00;;;;;;;-11.80;67.28;100266.94;5071192;28;20056;-62
2023/12/10 00:11:04;;;;;;;14.73;7.25;;;;;;;-11.89;67.08;100260.56;5053276;28;20044;-62
2023/12/10 00:13:30;;;;;;;16.00;7.57;;;;;;;-11.98;67.84;100250.78;5070005;28;20056;-61
2023/12/10 00:15:55;;;;;;;18.35;9.23;;;;;;;-11.98;68.53;100253.31;5071585;28;20090;-63
2023/12/10 00:18:21;;;;;;;19.85;9.40;;;;;;;-11.99;68.81;100244.84;5071436;28;20051;-62
2023/12/10 00:20:47;;;;;;;19.27;8.88;;;;;;;-11.98;67.81;100241.38;5071133;28;20037;-62
2023/12/10 00:23:13;;;;;;;20.63;8.85;;;;;;;-11.91;68.04;100227.41;5069922;28;20044;-62
2023/12/10 00:25:39;;;;;;;18.08;8.02;;;;;;;-11.91;67.76;100234.22;5071124;28;20055;-63
2023/12/10 00:28:05;;;;;;;19.02;9.07;;;;;;;-11.93;68.18;100228.38;5071536;28;20040;-62
2023/12/10 00:30:30;;;;;;;17.63;7.85;;;;;;;-11.93;68.21;100230.94;5068990;28;20544;-62
2023/12/10 00:32:56;;;;;;;18.50;8.65;;;;;;;-11.90;68.06;100223.94;5071134;28;20063;-62
2023/12/10 00:35:22;;;;;;;19.13;9.23;;;;;;;-12.01;69.58;100231.28;5071047;28;20082;-62
2023/12/10 00:37:47;;;;;;;13.38;7.00;;;;;;;-11.89;68.60;100229.88;5076301;28;20035;-63
2023/12/10 00:40:15;;;;;;;15.85;6.78;;;;;;;-11.95;69.11;100235.28;5089980;28;20047;-61
2023/12/10 00:42:41;;;;;;;20.75;9.27;;;;;;;-11.95;69.34;100232.72;5091156;28;20044;-61
2023/12/10 00:45:08;;;;;;;19.05;10.48;;;;;;;-11.86;69.19;100241.69;5091191;28;20558;-61
2023/12/10 00:47:33;;;;;;;23.58;9.57;;;;;;;-11.75;68.50;100244.53;5091140;28;20121;-61
2023/12/10 00:49:59;;;;;;;20.50;8.25;;;;;;;-11.77;69.04;100246.31;5076416;28;20086;-62
2023/12/10 00:52:25;;;;;;;19.08;8.13;;;;;;;-11.72;69.51;100247.75;5093442;28;20055;-62
2023/12/10 00:54:50;;;;;;;24.45;9.65;;;;;;;-11.63;68.45;100245.66;5087166;28;20040;-62
2023/12/10 00:57:16;;;;;;;21.35;10.73;;;;;;;-11.51;68.84;100253.53;5058067;28;20068;-62
2023/12/10 00:59:42;;;;;;;27.42;8.75;;;;;;;-11.44;68.44;100251.50;5093478;28;20078;-64
2023/12/10 01:02:08;;;;;;;24.92;10.90;;;;;;;-11.41;69.33;100242.84;5095201;28;20040;-61
2023/12/10 01:04:35;;;;;;;19.15;9.85;;;;;;;-11.25;68.88;100243.75;5077330;28;20068;-62
2023/12/10 01:07:01;;;;;;;18.40;9.30;;;;;;;-11.09;68.23;100236.94;5074893;28;20594;-62
2023/12/10 01:09:26;;;;;;;19.80;9.73;;;;;;;-11.09;67.50;100224.13;5087193;28;20150;-62
2023/12/10 01:11:52;;;;;;;25.42;10.07;;;;;;;-11.10;67.92;100226.78;5073156;28;20067;-62
2023/12/10 01:14:18;;;;;;;25.35;11.73;;;;;;;-11.16;67.62;100216.84;5074569;28;20037;-62
2023/12/10 01:16:43;;;;;;;22.95;10.43;;;;;;;-11.18;67.53;100216.91;5073180;28;20135;-63
2023/12/10 01:19:09;;;;;;;18.27;8.00;;;;;;;-11.25;68.12;100210.47;5088224;28;20040;-62
2023/12/10 01:21:35;;;;;;;13.82;7.00;;;;;;;-11.29;67.77;100193.63;5075788;28;20446;-61
2023/12/10 01:24:00;;;;;;;27.42;10.15;;;;;;;-11.48;68.17;100197.09;5074612;28;20074;-62
2023/12/10 01:26:26;;;;;;;22.30;9.93;;;;;;;-11.58;68.30;100202.78;5073573;28;20490;-62
2023/12/10 01:28:52;;;;;;;13.23;5.68;;;;;;;-11.64;68.95;100193.69;5092658;28;20072;-61
2023/12/10 01:31:18;;;;;;;16.38;7.65;;;;;;;-11.67;68.09;100197.22;5093669;28;20055;-63
2023/12/10 01:33:44;;;;;;;16.48;6.45;;;;;;;-11.77;68.58;100195.19;5094648;28;20048;-62
2023/12/10 01:36:21;;;;;;;19.80;9.57;;;;;;;-11.71;68.94;100190.56;5078129;28;20120;-63
2023/12/10 01:38:46;;;;;;;21.75;8.88;;;;;;;-11.66;68.90;100188.63;5069252;28;20052;-62
2023/12/10 01:41:12;;;;;;;20.08;9.38;;;;;;;-11.63;68.21;100192.75;5074115;28;20036;-63
2023/12/10 01:43:38;;;;;;;15.52;7.72;;;;;;;-11.64;68.21;100195.41;5073217;28;20045;-62
2023/12/10 01:46:04;;;;;;;15.10;7.97;;;;;;;-11.67;68.68;100189.53;5086557;28;20101;-62
2023/12/10 01:48:30;;;;;;;23.85;9.27;;;;;;;-11.69;68.97;100173.44;5092966;28;20439;-61
2023/12/10 01:50:56;;;;;;;18.02;9.50;;;;;;;-11.52;67.91;100176.88;5077994;28;20480;-61
2023/12/10 01:53:22;;;;;;;19.23;10.02;;;;;;;-11.46;68.57;100179.94;5071667;28;20603;-62
2023/12/10 01:55:48;;;;;;;21.25;9.13;;;;;;;-11.45;68.23;100178.22;5071476;28;20094;-61
2023/12/10 01:58:14;;;;;;;15.55;8.65;;;;;;;-11.45;67.92;100171.34;5077671;28;20047;-61
2023/12/10 02:00:40;;;;;;;23.88;10.27;;;;;;;-11.49;68.14;100163.94;5092854;28;20032;-63
2023/12/10 02:03:06;;;;;;;23.27;8.73;;;;;;;-11.51;67.93;100175.97;5079150;28;20051;-62
2023/12/10 02:05:32;;;;;;;21.65;9.43;;;;;;;-11.43;69.01;100181.53;5059715;28;20416;-62
2023/12/10 02:07:57;;;;;;;27.17;9.82;;;;;;;-11.40;68.39;100183.94;5074779;28;20075;-62
2023/12/10 02:10:23;;;;;;;26.90;9.63;;;;;;;-11.25;68.66;100188.25;5089407;28;20043;-64
2023/12/10 02:12:52;;;;;;;19.75;9.32;;;;;;;-11.27;67.20;100181.56;5067733;28;20040;-61
2023/12/10 02:15:19;;;;;;;26.92;10.65;;;;;;;-11.22;67.95;100195.78;5092761;28;20082;-61
2023/12/10 02:17:45;;;;;;;19.45;9.70;;;;;;;-11.07;69.48;100204.41;5087398;28;20051;-61
2023/12/10 02:20:14;;;;;;;25.70;11.80;;;;;;;-10.93;68.55;100200.31;5072525;28;20119;-61
2023/12/10 02:22:56;;;;;;;22.08;10.57;;;;;;;-10.82;68.32;100198.00;5074589;28;20138;-62
2023/12/10 02:25:31;;;;;;;19.08;8.48;;;;;;;-10.95;67.03;100197.00;5066174;28;20047;-62
2023/12/10 02:27:57;;;;;;;19.13;9.13;;;;;;;-11.02;66.81;100199.06;5073595;28;20127;-62
2023/12/10 02:30:23;;;;;;;17.83;9.45;;;;;;;-11.10;67.36;100184.06;5072038;28;20071;-61
2023/12/10 02:32:49;;;;;;;23.05;8.73;;;;;;;-11.07;67.85;100191.59;5076455;28;20140;-62
2023/12/10 02:35:15;;;;;;;21.55;9.75;;;;;;;-11.11;67.66;100189.28;5091736;28;20035;-63
2023/12/10 02:37:41;;;;;;;22.17;9.00;;;;;;;-11.06;67.89;100187.28;5084087;28;20041;-62
2023/12/10 02:40:07;;;;;;;18.40;9.52;;;;;;;-11.15;67.65;100185.22;5071463;28;20529;-62
2023/12/10 02:42:33;;;;;;;17.92;9.45;;;;;;;-11.22;67.44;100177.88;5074727;28;20054;-62
2023/12/10 02:44:59;;;;;;;21.90;9.48;;;;;;;-11.23;67.78;100177.97;5072346;28;20123;-63
2023/12/10 02:47:25;;;;;;;18.08;9.77;;;;;;;-11.12;68.65;100178.19;5072915;28;20414;-61
2023/12/10 02:49:51;;;;;;;18.35;9.05;;;;;;;-11.08;67.56;100181.47;5080390;28;20036;-63
2023/12/10 02:52:20;;;;;;;24.52;11.63;;;;;;;-11.08;68.70;100178.91;5092507;28;20056;-62
2023/12/10 02:54:46;;;;;;;20.05;9.02;;;;;;;-11.17;68.03;100177.63;5079835;28;20090;-62
2023/12/10 02:57:11;;;;;;;19.45;9.25;;;;;;;-11.15;67.85;100182.66;5071721;28;20064;-62
2023/12/10 02:59:37;;;;;;;13.85;6.88;;;;;;;-11.40;67.72;100173.69;5088896;28;20526;-63
2023/12/10 03:02:03;;;;;;;14.23;7.45;;;;;;;-11.40;68.25;100163.47;5091013;28;20067;-61
2023/12/10 03:04:28;;;;;;;20.38;8.40;;;;;;;-11.49;67.83;100158.81;5090988;28;20119;-62
2023/12/10 03:06:54;;;;;;;19.80;9.70;;;;;;;-11.51;67.87;100151.22;5086327;28;20054;-61
2023/12/10 03:09:20;;;;;;;23.48;10.98;;;;;;;-11.58;68.45;100131.97;5054618;28;20063;-61
2023/12/10 03:11:45;;;;;;;16.15;8.15;;;;;;;-11.41;68.19;100178.88;5088602;28;20097;-63
2023/12/10 03:14:11;;;;;;;17.00;7.57;;;;;;;-11.27;68.12;100158.53;5081020;28;20078;-61
2023/12/10 03:16:37;;;;;;;21.73;9.30;;;;;;;-11.30;67.89;100156.13;5088545;28;20036;-63
2023/12/10 03:19:02;;;;;;;21.60;8.45;;;;;;;-11.40;67.02;100166.03;5072725;28;20048;-61
2023/12/10 03:21:28;;;;;;;25.02;8.73;;;;;;;-11.31;68.10;100160.44;5054567;28;20394;-63
2023/12/10 03:23:54;;;;;;;17.67;9.32;;;;;;;-11.24;68.02;100158.38;5070982;28;20037;-61
2023/12/10 03:26:19;;;;;;;22.83;9.30;;;;;;;-11.16;68.07;100158.81;5076973;28;20058;-63
2023/12/10 03:28:45;;;;;;;22.60;9.77;;;;;;;-11.19;68.26;100163.25;5091138;28;20583;-63
2023/12/10 03:31:11;;;;;;;22.67;9.25;;;;;;;-11.12;67.17;100150.03;5074211;28;20562;-64
2023/12/10 03:33:36;;;;;;;20.13;8.70;;;;;;;-11.09;67.53;100144.75;5074130;28;20071;-62
2023/12/10 03:36:02;;;;;;;23.90;10.18;;;;;;;-11.15;67.17;100146.81;5089174;28;20097;-63
2023/12/10 03:38:30;;;;;;;16.23;8.13;;;;;;;-11.22;67.16;100149.72;5085690;28;20505;-62
2023/12/10 03:40:55;;;;;;;16.42;7.68;;;;;;;-11.23;67.34;100158.31;5071836;28;20516;-61
2023/12/10 03:43:21;;;;;;;18.83;8.30;;;;;;;-11.18;67.66;100163.16;5071845;28;20052;-62
2023/12/10 03:45:46;;;;;;;17.38;8.55;;;;;;;-11.13;67.44;100173.19;5071678;28;20076;-64
2023/12/10 03:48:12;;;;;;;20.60;8.35;;;;;;;-11.24;67.48;100176.28;5078775;28;20131;-63
2023/12/10 03:50:38;;;;;;;16.27;8.25;;;;;;;-11.23;67.84;100172.84;5070095;28;20109;-63
2023/12/10 03:53:04;;;;;;;19.27;8.48;;;;;;;-11.14;67.86;100176.66;5069209;28;20529;-62
2023/12/10 03:55:29;;;;;;;26.20;9.02;;;;;;;-11.06;68.03;100167.66;5070587;28;20139;-62
2023/12/10 03:57:55;;;;;;;18.73;7.93;;;;;;;-11.05;67.48;100164.19;5079384;28;20101;-62
2023/12/10 04:00:21;;;;;;;17.63;6.78;;;;;;;-11.06;67.42;100159.13;5091873;28;20044;-64
2023/12/10 04:02:47;;;;;;;21.27;8.48;;;;;;;-11.18;67.96;100152.09;5089737;28;20044;-63
2023/12/10 04:05:12;;;;;;;25.83;11.63;;;;;;;-11.18;68.49;100146.97;5082254;28;20098;-64
2023/12/10 04:07:39;;;;;;;28.27;11.18;;;;;;;-11.13;67.90;100156.09;5085713;28;20134;-63
2023/12/10 04:10:06;;;;;;;19.65;10.00;;;;;;;-11.10;67.64;100157.66;5091540;28;20039;-63
2023/12/10 04:12:32;;;;;;;23.70;10.57;;;;;;;-11.09;67.87;100151.63;5090271;28;20228;-62
2023/12/10 04:14:58;;;;;;;20.08;9.00;;;;;;;-11.06;67.89;100151.47;5077190;28;20074;-62
2023/12/10 04:17:23;;;;;;;15.80;8.32;;;;;;;-11.19;68.00;100151.28;5079148;28;20044;-62
2023/12/10 04:19:49;;;;;;;18.85;9.00;;;;;;;-11.12;68.63;100156.91;5081215;28;20048;-64
2023/12/10 04:22:15;;;;;;;19.60;9.18;;;;;;;-11.17;67.32;100154.59;5081538;28;20040;-62
2023/12/10 04:24:41;;;;;;;15.13;7.07;;;;;;;-11.30;68.02;100154.38;5089166;28;20509;-61
2023/12/10 04:27:06;;;;;;;21.67;9.30;;;;;;;-11.21;68.13;100168.44;5076476;28;20113;-62
2023/12/10 04:29:32;;;;;;;22.52;9.50;;;;;;;-11.23;67.77;100163.41;5089454;28;20097;-62
2023/12/10 04:32:00;;;;;;;19.13;8.52;;;;;;;-11.26;67.23;100166.16;5074488;28;20164;-62
2023/12/10 04:34:26;;;;;;;22.40;9.77;;;;;;;-11.25;68.16;100155.00;5091029;28;20064;-61
2023/12/10 04:36:51;;;;;;;22.17;10.15;;;;;;;-11.16;68.13;100166.47;5091361;28;20089;-64
2023/12/10 04:39:18;;;;;;;24.02;10.40;;;;;;;-11.17;68.54;100175.06;5089980;28;20447;-62
2023/12/10 04:41:43;;;;;;;19.65;9.13;;;;;;;-10.95;68.88;100168.81;5088076;28;20061;-62
2023/12/10 04:44:09;;;;;;;24.25;8.10;;;;;;;-10.83;68.19;100160.47;5074611;28;20036;-62
2023/12/10 04:46:35;;;;;;;28.35;8.60;;;;;;;-10.94;67.12;100162.78;5069724;28;20040;-64
2023/12/10 04:49:00;;;;;;;18.92;7.38;;;;;;;-11.01;67.34;100165.66;5071282;28;20057;-62
2023/12/10 04:51:26;;;;;;;24.13;8.65;;;;;;;-11.08;67.17;100166.91;5073034;28;20041;-62
2023/12/10 04:53:52;;;;;;;18.40;7.65;;;;;;;-11.13;67.32;100161.19;5085182;28;20037;-62
2023/12/10 04:56:17;;;;;;;18.00;8.93;;;;;;;-11.22;67.25;100170.19;5071021;28;20516;-61
2023/12/10 04:58:43;;;;;;;14.98;7.45;;;;;;;-11.32;67.63;100171.59;5078723;28;20149;-61
2023/12/10 05:01:09;;;;;;;18.05;9.45;;;;;;;-11.35;68.70;100165.78;5077908;28;20037;-62
2023/12/10 05:03:35;;;;;;;17.08;7.82;;;;;;;-11.35;68.64;100164.06;5071181;28;20052;-63
2023/12/10 05:06:01;;;;;;;18.08;7.50;;;;;;;-11.39;68.15;100160.00;5077729;28;20036;-63
2023/12/10 05:08:26;;;;;;;19.00;8.90;;;;;;;-11.50;67.88;100159.72;5080133;28;20052;-62
2023/12/10 05:10:52;;;;;;;20.25;8.07;;;;;;;-11.44;68.30;100156.84;5063362;28;20127;-63
2023/12/10 05:13:18;;;;;;;14.93;7.68;;;;;;;-11.51;68.20;100161.44;5077423;28;20076;-62
2023/12/10 05:15:44;;;;;;;15.82;6.55;;;;;;;-11.49;68.84;100151.16;5091196;28;20165;-61
2023/12/10 05:18:09;;;;;;;14.00;8.15;;;;;;;-11.47;68.94;100149.31;5078660;28;20040;-62
2023/12/10 05:20:35;;;;;;;14.52;8.05;;;;;;;-11.47;68.08;100157.00;5086350;28;20391;-61
2023/12/10 05:23:01;;;;;;;15.48;8.50;;;;;;;-11.50;68.80;100158.00;5070526;28;20044;-62
2023/12/10 05:25:30;;;;;;;17.67;7.65;;;;;;;-11.45;68.26;100155.19;5071534;28;20072;-63
2023/12/10 05:27:57;;;;;;;21.45;9.50;;;;;;;-11.39;68.19;100142.06;5069454;28;20113;-62
2023/12/10 05:30:22;;;;;;;17.45;8.77;;;;;;;-11.38;68.64;100148.88;5067173;28;20139;-62
2023/12/10 05:32:48;;;;;;;17.77;8.73;;;;;;;-11.27;68.75;100155.97;5069099;28;20576;-62
2023/12/10 05:35:14;;;;;;;13.18;7.72;;;;;;;-11.29;67.98;100155.25;5090135;28;20054;-62
2023/12/10 05:37:40;;;;;;;14.45;6.93;;;;;;;-11.33;67.82;100149.44;5081745;28;20485;-63
2023/12/10 05:40:06;;;;;;;17.55;8.30;;;;;;;-11.28;68.22;100152.59;5094127;28;20072;-63
2023/12/10 05:42:32;;;;;;;14.68;7.70;;;;;;;-11.32;67.89;100143.44;5077891;28;20059;-62
2023/12/10 05:44:58;;;;;;;17.92;7.85;;;;;;;-11.33;67.94;100149.44;5072370;28;20036;-63
2023/12/10 05:47:24;;;;;;;18.33;8.05;;;;;;;-11.31;67.62;100144.25;5090496;28;20485;-61
2023/12/10 05:49:50;;;;;;;21.83;8.77;;;;;;;-11.26;67.82;100150.78;5089613;28;20033;-63
2023/12/10 05:52:16;;;;;;;12.52;6.03;;;;;;;-11.23;67.85;100149.81;5061215;28;20052;-63
2023/12/10 05:54:42;;;;;;;16.70;7.55;;;;;;;-11.17;67.79;100146.09;5072718;28;20039;-61
2023/12/10 05:57:08;;;;;;;17.17;6.88;;;;;;;-11.23;68.04;100145.50;5072522;28;20036;-64
2023/12/10 05:59:33;;;;;;;19.02;9.95;;;;;;;-11.16;67.95;100146.00;5089074;28;20060;-63
2023/12/10 06:01:59;;;;;;;19.85;8.85;;;;;;;-11.05;68.14;100148.81;5073995;28;20095;-64
2023/12/10 06:04:25;;;;;;;15.88;8.00;;;;;;;-11.07;68.19;100144.69;5072561;28;20052;-62
2023/12/10 06:06:51;;;;;;;16.83;9.05;;;;;;;-10.95;67.78;100146.59;5086239;28;20532;-62
2023/12/10 06:09:16;;;;;;;10.35;6.13;;;;;;;-11.02;67.26;100158.09;5093571;28;20079;-61
2023/12/10 06:11:42;;;;;;;21.40;10.10;;;;;;;-10.99;68.27;100145.13;5097794;28;20040;-64
2023/12/10 06:14:08;;;;;;;19.85;8.98;;;;;;;-11.09;67.36;100146.50;5076345;28;20580;-61
2023/12/10 06:16:33;;;;;;;18.60;9.00;;;;;;;-11.03;67.32;100153.84;5079481;28;20124;-62
2023/12/10 06:18:59;;;;;;;18.25;9.80;;;;;;;-11.00;67.64;100139.19;5065033;28;20559;-63
2023/12/10 06:21:25;;;;;;;19.10;8.13;;;;;;;-11.02;67.50;100132.47;5092078;28;20067;-62
2023/12/10 06:23:51;;;;;;;19.73;9.63;;;;;;;-10.98;67.65;100139.91;5098555;22;20110;-62
2023/12/10 06:26:16;;;;;;;19.77;8.45;;;;;;;-10.93;67.30;100144.78;5040220;28;20095;-62
2023/12/10 06:28:42;;;;;;;14.85;7.35;;;;;;;-11.06;67.18;100148.91;5045141;28;20049;-61
2023/12/10 06:31:08;;;;;;;13.82;7.15;;;;;;;-11.00;67.50;100149.41;5030587;28;20041;-62
2023/12/10 06:33:33;;;;;;;18.67;8.55;;;;;;;-10.90;67.11;100146.38;5030842;28;20171;-62
2023/12/10 06:35:59;;;;;;;13.45;8.05;;;;;;;-10.90;66.90;100146.38;5030627;28;20127;-62
2023/12/10 06:38:25;;;;;;;14.18;7.20;;;;;;;-10.93;66.84;100151.66;5030734;28;20050;-63
2023/12/10 06:40:51;;;;;;;17.20;9.13;;;;;;;-10.85;66.90;100146.91;5040364;28;20052;-62
2023/12/10 06:43:17;;;;;;;18.33;8.82;;;;;;;-10.83;66.85;100145.13;5018448;28;20037;-61
2023/12/10 06:45:42;;;;;;;24.95;9.43;;;;;;;-10.72;67.11;100142.81;5030954;28;20041;-63
2023/12/10 06:48:08;;;;;;;22.77;9.95;;;;;;;-10.71;66.99;100138.50;5032233;28;20037;-61
2023/12/10 06:50:34;;;;;;;21.38;8.32;;;;;;;-10.72;65.94;100139.41;5014459;28;20042;-62
2023/12/10 06:53:00;;;;;;;20.75;7.40;;;;;;;-10.74;66.21;100144.59;5029960;28;20049;-62
2023/12/10 06:55:26;;;;;;;17.20;8.10;;;;;;;-10.64;66.74;100147.53;5032812;28;20048;-63
2023/12/10 06:57:56;;;;;;;24.25;9.10;;;;;;;-10.76;67.05;100142.16;5009454;28;20040;-61
2023/12/10 07:00:22;;;;;;;12.00;6.95;;;;;;;-10.66;66.59;100154.47;5033204;28;20063;-61
2023/12/10 07:02:48;;;;;;;17.50;8.18;;;;;;;-10.50;66.89;100147.56;5051621;28;20057;-63
2023/12/10 07:05:13;;;;;;;19.92;10.23;;;;;;;-10.40;67.52;100147.91;5052727;28;20041;-63
2023/12/10 07:07:39;;;;;;;21.98;8.30;;;;;;;-10.20;66.63;100149.31;5042443;28;20103;-63
2023/12/10 07:10:05;;;;;;;20.25;9.45;;;;;;;-10.15;65.20;100153.25;5014812;28;20133;-61
2023/12/10 07:12:31;;;;;;;20.95;8.82;;;;;;;-10.18;65.72;100155.16;5032129;28;20152;-62
2023/12/10 07:14:57;;;;;;;21.83;8.43;;;;;;;-10.17;65.55;100146.59;5032330;28;20127;-62
2023/12/10 07:17:22;;;;;;;17.27;8.80;;;;;;;-10.11;65.54;100152.19;4997900;28;20095;-63
2023/12/10 07:19:49;;;;;;;16.95;7.95;;;;;;;-10.24;63.95;100146.09;5014878;28;20041;-63
2023/12/10 07:22:14;;;;;;;21.27;8.50;;;;;;;-10.14;65.08;100152.38;5032253;28;20495;-61
2023/12/10 07:24:40;;;;;;;20.98;8.35;;;;;;;-10.04;64.65;100157.78;5031871;28;20068;-62
2023/12/10 07:27:06;;;;;;;18.55;8.45;;;;;;;-9.99;64.20;100155.78;5014539;28;20091;-63
2023/12/10 07:29:31;;;;;;;17.15;7.30;;;;;;;-10.11;64.77;100153.94;4998220;28;20511;-62
2023/12/10 07:31:57;;;;;;;13.68;7.05;;;;;;;-10.13;64.54;100154.00;5014862;28;20506;-60
2023/12/10 07:34:23;;;;;;;20.58;8.77;;;;;;;-10.20;65.32;100141.63;4981689;28;20041;-61
2023/12/10 07:36:49;;;;;;;16.10;8.88;;;;;;;-10.16;65.24;100148.22;4997798;28;20045;-64
2023/12/10 07:39:16;;;;;;;21.58;9.00;;;;;;;-10.00;64.77;100155.88;4963014;28;20064;-62
2023/12/10 07:41:41;;;;;;;20.42;8.80;;;;;;;-10.03;63.67;100148.34;5010719;28;20502;-63
2023/12/10 07:44:07;;;;;;;16.23;7.93;;;;;;;-10.04;63.70;100139.84;5028408;28;20076;-61
2023/12/10 07:46:33;;;;;;;15.75;7.70;;;;;;;-10.07;64.22;100140.00;5017841;28;20136;-62
2023/12/10 07:48:59;;;;;;;18.48;7.90;;;;;;;-9.94;64.49;100150.38;5031755;28;20084;-64
2023/12/10 07:51:24;;;;;;;22.60;8.50;;;;;;;-9.78;64.06;100152.91;5030433;28;20050;-64
2023/12/10 07:53:50;;;;;;;18.27;8.35;;;;;;;-9.80;63.86;100149.59;5031282;28;20343;-63
2023/12/10 07:56:16;;;;;;;16.67;7.80;;;;;;;-9.65;64.23;100146.94;5012998;28;20468;-62
2023/12/10 07:58:41;;;;;;;22.05;8.85;;;;;;;-9.65;63.33;100146.13;5030515;28;20046;-62
2023/12/10 08:01:10;;;;;;;20.38;9.40;;;;;;;-9.49;63.43;100152.03;5031504;28;20083;-63
2023/12/10 08:03:36;;;;;;;26.63;10.18;;;;;;;-9.46;63.23;100151.03;5030079;28;20103;-64
2023/12/10 08:06:02;;;;;;;18.58;8.80;;;;;;;-9.60;62.60;100151.81;4997746;28;20387;-64
2023/12/10 08:08:28;;;;;;;24.25;10.98;;;;;;;-9.76;62.71;100151.91;5029671;28;20107;-65
2023/12/10 08:10:54;;;;;;;22.65;9.98;;;;;;;-9.68;63.48;100146.31;5026839;28;20566;-66
2023/12/10 08:13:19;;;;;;;18.35;8.15;;;;;;;-9.50;63.28;100152.09;5027693;28;20049;-65
2023/12/10 08:15:45;;;;;;;17.02;8.02;;;;;;;-9.45;63.20;100158.63;5030765;28;20274;-63
2023/12/10 08:18:11;;;;;;;16.42;7.80;;;;;;;-9.46;61.84;100154.41;5027237;28;20084;-65
2023/12/10 08:20:37;;;;;;;15.32;7.72;;;;;;;-9.37;62.03;100155.59;5012064;28;20465;-64
2023/12/10 08:23:02;;;;;;;18.80;9.02;;;;;;;-9.36;62.17;100154.69;4995789;28;20068;-66
2023/12/10 08:25:28;;;;;;;13.10;7.10;;;;;;;-9.53;61.94;100142.84;5010433;28;20040;-63
2023/12/10 08:27:54;;;;;;;17.88;7.93;;;;;;;-9.48;63.07;100145.97;5027608;28;20044;-63
2023/12/10 08:30:20;;;;;;;19.35;9.50;;;;;;;-9.51;62.30;100141.00;5034329;28;20550;-64
2023/12/10 08:32:46;;;;;;;18.55;8.15;;;;;;;-9.39;63.27;100140.28;4996693;28;20042;-64
2023/12/10 08:35:12;;;;;;;23.77;9.63;;;;;;;-9.45;62.96;100134.69;5000834;28;20045;-64
2023/12/10 08:37:47;;;;;;;15.55;7.63;;;;;;;-9.38;62.36;100138.56;5000864;28;20041;-64
2023/12/10 08:40:14;;;;;;;19.08;9.95;;;;;;;-9.33;61.60;100138.28;4985412;28;20495;-65
2023/12/10 08:42:40;;;;;;;16.73;8.68;;;;;;;-9.14;62.64;100136.25;5034326;28;20058;-64
2023/12/10 08:45:08;;;;;;;17.70;8.70;;;;;;;-8.97;61.16;100137.78;5025529;28;20128;-65
2023/12/10 08:47:35;;;;;;;19.58;8.60;;;;;;;-9.04;60.63;100136.50;5013278;28;20513;-62
2023/12/10 08:50:02;;;;;;;18.42;9.50;;;;;;;-8.95;60.29;100134.19;5030880;28;20049;-64
2023/12/10 08:52:28;;;;;;;19.08;7.97;;;;;;;-8.91;61.12;100142.56;5031127;28;20056;-62
2023/12/10 08:54:55;;;;;;;16.35;8.07;;;;;;;-8.85;61.82;100146.47;5009330;28;20140;-62
2023/12/10 08:57:22;;;;;;;14.93;8.35;;;;;;;-8.75;61.04;100150.94;4998636;28;20038;-65
2023/12/10 08:59:47;;;;;;;16.52;8.57;;;;;;;-8.78;61.49;100145.19;5009662;28;20569;-65
2023/12/10 09:02:13;;;;;;;16.98;8.13;;;;;;;-8.89;61.31;100145.84;5030530;28;20124;-64
2023/12/10 09:04:39;;;;;;;17.50;8.23;;;;;;;-8.84;62.51;100150.72;5030548;28;20427;-64
2023/12/10 09:07:04;;;;;;;18.15;8.68;;;;;;;-8.99;61.13;100143.03;5030932;28;20068;-63
2023/12/10 09:09:32;;;;;;;21.10;9.05;;;;;;;-8.98;60.37;100146.41;5033004;28;20507;-65
2023/12/10 09:11:59;;;;;;;16.10;8.07;;;;;;;-8.97;60.95;100130.91;5024057;28;20045;-63
2023/12/10 09:14:25;;;;;;;16.10;8.30;;;;;;;-8.87;61.07;100126.03;5020970;28;20037;-62
2023/12/10 09:16:51;;;;;;;22.73;9.18;;;;;;;-8.74;60.74;100141.50;5034423;28;20132;-63
2023/12/10 09:19:17;;;;;;;22.92;10.02;;;;;;;-8.72;62.46;100135.34;5034007;28;20045;-62
2023/12/10 09:21:46;;;;;;;15.98;9.18;;;;;;;-8.57;61.79;100135.31;5034527;28;20102;-63
2023/12/10 09:24:12;;;;;;;17.77;8.65;;;;;;;-8.58;60.10;100136.25;5015543;28;20069;-61
2023/12/10 09:26:37;;;;;;;18.85;10.25;;;;;;;-8.65;61.70;100137.53;5035621;28;20041;-61
2023/12/10 09:29:03;;;;;;;27.13;9.80;;;;;;;-8.72;62.12;100142.22;4981292;28;20096;-62
2023/12/10 09:31:29;;;;;;;12.88;7.55;;;;;;;-8.75;60.85;100132.97;5027787;28;20084;-62
2023/12/10 09:33:55;;;;;;;16.65;7.80;;;;;;;-8.75;60.97;100117.53;5034642;28;20053;-61
2023/12/10 09:36:20;;;;;;;18.02;9.07;;;;;;;-8.80;61.95;100118.75;5031272;28;20224;-63
2023/12/10 09:38:46;;;;;;;21.13;9.55;;;;;;;-8.86;61.87;100119.94;5033915;28;20107;-62
2023/12/10 09:41:12;;;;;;;15.38;7.15;;;;;;;-8.86;61.40;100106.28;5033659;28;20165;-65
2023/12/10 09:43:37;;;;;;;15.68;7.47;;;;;;;-8.87;61.44;100109.78;5033339;28;20416;-62
2023/12/10 09:46:03;;;;;;;19.52;9.15;;;;;;;-8.91;62.20;100111.72;5033740;28;20132;-63
2023/12/10 09:48:30;;;;;;;18.63;7.18;;;;;;;-8.97;62.25;100112.09;5033988;28;20132;-62
2023/12/10 09:50:56;;;;;;;25.67;8.75;;;;;;;-9.08;61.52;100105.06;5033461;28;20041;-61
2023/12/10 09:53:22;;;;;;;17.98;9.00;;;;;;;-9.20;62.86;100105.81;5033878;28;20140;-63
2023/12/10 09:55:48;;;;;;;21.33;9.85;;;;;;;-9.22;62.83;100103.31;5033110;28;20075;-64
2023/12/10 09:58:14;;;;;;;25.58;11.23;;;;;;;-9.12;64.05;100102.75;5027833;28;20048;-63
2023/12/10 10:00:40;;;;;;;20.38;9.27;;;;;;;-8.99;63.45;100109.63;5032701;28;20045;-63
2023/12/10 10:03:06;;;;;;;25.13;10.00;;;;;;;-8.92;62.50;100107.50;5033366;28;20041;-60
2023/12/10 10:05:35;;;;;;;23.52;10.20;;;;;;;-8.96;63.57;100101.72;5028436;28;20037;-62
2023/12/10 10:08:00;;;;;;;19.38;8.82;;;;;;;-9.03;62.75;100090.19;5032399;28;20041;-62
2023/12/10 10:10:26;;;;;;;20.52;8.60;;;;;;;-9.07;63.85;100088.72;5015130;28;20067;-63
2023/12/10 10:12:54;;;;;;;19.42;8.98;;;;;;;-9.05;63.01;100081.75;5026881;28;20048;-63
2023/12/10 10:15:39;;;;;;;19.65;9.18;;;;;;;-8.91;64.21;100088.59;5033120;28;20068;-62
2023/12/10 10:18:10;;;;;;;17.40;8.15;;;;;;;-9.07;62.80;100082.75;4999059;28;20036;-62
2023/12/10 10:20:38;;;;;;;21.77;9.20;;;;;;;-9.09;64.55;100075.13;5032504;28;20430;-62
2023/12/10 10:23:05;;;;;;;16.55;9.00;;;;;;;-9.11;63.37;100074.44;5033189;28;20076;-63
2023/12/10 10:25:32;;;;;;;20.30;9.50;;;;;;;-9.19;63.71;100071.50;5014380;28;20518;-65
2023/12/10 10:27:58;;;;;;;21.92;10.00;;;;;;;-9.28;65.26;100082.34;5031493;28;20084;-63
2023/12/10 10:30:24;;;;;;;20.30;8.02;;;;;;;-9.38;65.75;100070.06;5031884;28;20045;-63
2023/12/10 10:32:51;;;;;;;15.85;7.57;;;;;;;-9.37;65.39;100071.72;5031769;28;20053;-61
2023/12/10 10:35:17;;;;;;;12.95;7.05;;;;;;;-9.30;65.69;100079.03;5015558;28;20442;-62
2023/12/10 10:37:43;;;;;;;20.08;9.63;;;;;;;-9.24;65.09;100079.47;5032945;28;20041;-63
2023/12/10 10:40:09;;;;;;;21.55;9.25;;;;;;;-9.24;65.45;100083.78;5032587;28;20123;-63
2023/12/10 10:42:34;;;;;;;23.00;9.40;;;;;;;-9.24;66.18;100076.91;5031853;28;20507;-63
2023/12/10 10:45:01;;;;;;;20.23;8.80;;;;;;;-9.12;65.14;100092.50;5032505;28;20120;-67
2023/12/10 10:47:28;;;;;;;13.85;7.03;;;;;;;-9.21;64.29;100086.16;5032214;28;20046;-63
2023/12/10 10:49:56;;;;;;;19.45;8.48;;;;;;;-9.23;64.77;100088.84;5014907;28;20040;-63
2023/12/10 10:52:24;;;;;;;20.88;9.15;;;;;;;-9.06;65.23;100087.78;4982398;28;20077;-61
2023/12/10 10:54:54;;;;;;;13.98;6.47;;;;;;;-9.11;63.85;100099.28;5012681;28;20038;-63
2023/12/10 10:57:30;;;;;;;19.58;8.52;;;;;;;-9.00;64.67;100086.59;5002537;28;20080;-67
2023/12/10 10:59:57;;;;;;;23.20;9.75;;;;;;;-9.06;64.33;100090.34;5014840;28;20080;-62
2023/12/10 11:02:22;;;;;;;16.05;7.68;;;;;;;-8.99;64.92;100083.94;4984612;28;20498;-63
2023/12/10 11:04:50;;;;;;;16.77;8.73;;;;;;;-8.99;63.80;100077.97;5012666;28;20044;-66
2023/12/10 11:07:16;;;;;;;19.95;8.32;;;;;;;-9.08;63.64;100073.41;5013793;28;20045;-65